createdAt,value
2022-11-08T00:01:17.186Z,11.86
2022-11-08T00:06:36.943Z,11.83
2022-11-08T00:11:57.018Z,11.80
2022-11-08T00:16:58.377Z,11.77
2022-11-08T00:21:59.746Z,11.77
2022-11-08T00:27:03.988Z,11.74
2022-11-08T00:32:09.107Z,11.73
2022-11-08T00:37:11.013Z,11.73
2022-11-08T00:42:12.777Z,11.73
2022-11-08T00:47:14.163Z,11.73
2022-11-08T00:52:15.511Z,11.73
2022-11-08T00:57:16.857Z,11.70
2022-11-08T01:02:18.327Z,11.70
2022-11-08T01:07:19.723Z,11.71
2022-11-08T01:12:21.069Z,11.70
2022-11-08T01:17:22.519Z,11.68
2022-11-08T01:22:23.856Z,11.65
2022-11-08T01:27:25.206Z,11.62
2022-11-08T01:32:26.560Z,11.61
2022-11-08T01:37:27.927Z,11.60
2022-11-08T01:42:32.764Z,11.60
2022-11-08T01:47:34.339Z,11.61
2022-11-08T01:52:40.471Z,11.60
2022-11-08T01:57:57.311Z,11.60
2022-11-08T02:03:01.898Z,11.59
2022-11-08T02:08:26.016Z,11.54
2022-11-08T02:13:29.449Z,11.52
2022-11-08T02:18:32.265Z,11.51
2022-11-08T02:23:51.104Z,11.50
2022-11-08T02:28:52.525Z,11.48
2022-11-08T02:33:54.023Z,11.48
2022-11-08T02:38:57.691Z,11.48
2022-11-08T02:43:59.038Z,11.49
2022-11-08T02:49:00.415Z,11.49
2022-11-08T02:54:01.764Z,11.48
2022-11-08T02:59:03.178Z,11.46
2022-11-08T03:04:04.767Z,11.47
2022-11-08T03:09:06.149Z,11.46
2022-11-08T03:14:07.510Z,11.41
2022-11-08T03:19:08.900Z,11.41
2022-11-08T03:24:11.687Z,11.42
2022-11-08T03:29:12.946Z,11.45
2022-11-08T03:34:14.562Z,11.44
2022-11-08T03:39:15.952Z,11.37
2022-11-08T03:44:17.364Z,11.28
2022-11-08T03:49:18.731Z,11.22
2022-11-08T03:54:20.196Z,11.23
2022-11-08T03:59:21.540Z,11.16
2022-11-08T04:04:22.971Z,11.13
2022-11-08T04:09:24.328Z,11.14
2022-11-08T04:14:44.565Z,11.15
2022-11-08T04:20:04.653Z,11.15
2022-11-08T04:25:06.508Z,11.18
2022-11-08T04:30:08.435Z,11.17
2022-11-08T04:35:09.828Z,11.14
2022-11-08T04:40:11.679Z,11.10
2022-11-08T04:45:13.166Z,11.06
2022-11-08T04:50:15.133Z,10.99
2022-11-08T04:55:16.569Z,10.90
2022-11-08T05:00:18.156Z,10.82
2022-11-08T05:05:19.542Z,10.77
2022-11-08T05:10:20.886Z,10.73
2022-11-08T05:15:22.227Z,10.70
2022-11-08T05:20:42.240Z,10.66
2022-11-08T05:25:45.713Z,10.67
2022-11-08T05:30:56.814Z,10.72
2022-11-08T05:36:06.380Z,10.73
2022-11-08T05:41:13.316Z,10.72
2022-11-08T05:46:15.452Z,10.71
2022-11-08T05:51:18.110Z,10.70
2022-11-08T05:56:19.504Z,10.68
2022-11-08T06:01:20.895Z,10.62
2022-11-08T06:06:22.967Z,10.53
2022-11-08T06:11:26.509Z,10.39
2022-11-08T06:16:27.863Z,10.25
2022-11-08T06:21:29.287Z,10.21
2022-11-08T06:26:30.679Z,10.24
2022-11-08T06:31:32.061Z,10.32
2022-11-08T06:36:33.442Z,10.39
2022-11-08T06:41:35.014Z,10.43
2022-11-08T06:46:36.364Z,10.52
2022-11-08T06:51:37.814Z,10.62
2022-11-08T06:56:39.151Z,10.78
2022-11-08T07:01:45.327Z,10.90
2022-11-08T07:06:47.095Z,11.04
2022-11-08T07:11:48.451Z,11.13
2022-11-08T07:16:49.936Z,11.21
2022-11-08T07:21:51.286Z,11.28
2022-11-08T07:26:52.902Z,11.34
2022-11-08T07:31:54.586Z,11.38
2022-11-08T07:36:55.957Z,11.47
2022-11-08T07:41:57.311Z,11.56
2022-11-08T07:47:01.422Z,11.62
2022-11-08T07:52:02.880Z,11.69
2022-11-08T07:57:04.293Z,11.76
2022-11-08T08:02:06.420Z,11.84
2022-11-08T08:07:08.114Z,11.94
2022-11-08T08:12:09.513Z,12.00
2022-11-08T08:17:10.861Z,12.13
2022-11-08T08:22:12.328Z,12.25
2022-11-08T08:27:13.687Z,12.37
2022-11-08T08:32:15.052Z,12.51
2022-11-08T08:37:17.237Z,12.64
2022-11-08T08:42:18.600Z,12.78
2022-11-08T08:47:19.972Z,12.89
2022-11-08T08:52:21.356Z,13.03
2022-11-08T08:57:22.718Z,13.19
2022-11-08T09:02:24.100Z,13.32
2022-11-08T09:07:25.433Z,13.45
2022-11-08T09:12:27.717Z,13.52
2022-11-08T09:17:29.758Z,13.61
2022-11-08T09:22:33.852Z,13.74
2022-11-08T09:27:35.216Z,13.92
2022-11-08T09:37:59.989Z,14.27
2022-11-08T09:43:31.287Z,14.47
2022-11-08T09:48:41.046Z,14.63
2022-11-08T09:53:52.721Z,14.74
2022-11-08T09:59:05.544Z,14.86
2022-11-08T10:04:15.183Z,14.99
2022-11-08T10:09:35.441Z,15.17
2022-11-08T10:14:53.540Z,15.28
2022-11-08T10:20:20.822Z,15.41
2022-11-08T10:25:29.339Z,15.50
2022-11-08T10:30:36.208Z,15.58
2022-11-08T10:35:46.510Z,15.63
2022-11-08T10:41:20.333Z,15.73
2022-11-08T10:46:22.665Z,15.79
2022-11-08T10:51:24.145Z,15.88
2022-11-08T10:56:25.576Z,15.94
2022-11-08T11:01:26.992Z,15.99
2022-11-08T11:06:33.325Z,16.04
2022-11-08T11:11:38.884Z,15.99
2022-11-08T11:16:55.460Z,15.93
2022-11-08T11:22:03.642Z,15.90
2022-11-08T11:27:07.461Z,15.97
2022-11-08T11:32:34.481Z,15.98
2022-11-08T11:37:44.959Z,15.95
2022-11-08T11:43:01.730Z,15.93
2022-11-08T11:48:14.078Z,15.90
2022-11-08T11:53:18.140Z,15.91
2022-11-08T11:58:31.896Z,15.92
2022-11-08T12:03:44.532Z,15.95
2022-11-08T12:08:54.161Z,15.95
2022-11-08T12:14:28.591Z,15.95
2022-11-08T12:19:54.863Z,15.90
2022-11-08T12:25:03.077Z,15.86
2022-11-08T12:30:23.534Z,15.88
2022-11-08T12:35:38.737Z,15.95
2022-11-08T12:40:54.332Z,16.02
2022-11-08T12:46:16.358Z,16.03
2022-11-08T12:51:17.724Z,16.01
2022-11-08T12:56:28.267Z,16.02
2022-11-08T13:01:30.652Z,16.13
2022-11-08T13:06:50.359Z,17.04
2022-11-08T13:12:37.116Z,17.55
2022-11-08T13:17:38.521Z,17.12
2022-11-08T13:22:44.261Z,16.67
2022-11-08T13:27:48.238Z,16.51
2022-11-08T13:33:26.621Z,16.38
2022-11-08T13:39:12.400Z,16.11
2022-11-08T13:44:52.097Z,15.91
2022-11-08T13:50:13.577Z,15.75
2022-11-08T13:55:43.554Z,15.57
2022-11-08T14:00:46.360Z,15.40
2022-11-08T14:05:49.089Z,15.28
2022-11-08T14:11:02.509Z,15.21
2022-11-08T14:16:12.647Z,15.16
2022-11-08T14:21:19.259Z,15.13
2022-11-08T14:26:23.568Z,15.08
2022-11-08T14:31:31.237Z,15.00
2022-11-08T14:36:32.695Z,14.89
2022-11-08T14:41:34.218Z,14.75
2022-11-08T14:46:39.449Z,14.59
2022-11-08T14:51:42.244Z,14.47
2022-11-08T14:56:45.032Z,14.39
2022-11-08T15:01:49.265Z,14.24
2022-11-08T15:06:56.402Z,14.04
2022-11-08T15:12:02.342Z,13.82
2022-11-08T15:17:04.132Z,13.65
2022-11-08T15:22:24.427Z,13.53
2022-11-08T15:27:26.773Z,13.42
2022-11-08T15:32:35.094Z,13.36
2022-11-08T15:37:38.929Z,13.40
2022-11-08T15:42:44.692Z,13.42
2022-11-08T15:47:48.023Z,13.43
2022-11-08T15:52:52.033Z,13.45
2022-11-08T15:57:54.631Z,13.46
2022-11-08T16:02:56.318Z,13.45
2022-11-08T16:07:58.334Z,13.43
2022-11-08T16:13:00.864Z,13.38
2022-11-08T16:18:02.573Z,13.32
2022-11-08T16:23:07.235Z,13.28
2022-11-08T16:28:19.170Z,13.22
2022-11-08T16:33:23.838Z,13.16
2022-11-08T16:38:28.788Z,13.10
2022-11-08T16:43:30.631Z,13.03
2022-11-08T16:48:32.576Z,12.95
2022-11-08T16:53:36.595Z,12.99
2022-11-08T16:58:38.101Z,13.02
2022-11-08T17:03:39.999Z,13.03
2022-11-08T17:08:41.446Z,13.00
2022-11-08T17:13:43.034Z,12.95
2022-11-08T17:18:48.567Z,12.90
2022-11-08T17:23:52.834Z,12.85
2022-11-08T17:28:57.612Z,12.83
2022-11-08T17:33:58.992Z,12.78
2022-11-08T17:39:01.005Z,12.70
2022-11-08T17:44:02.409Z,12.65
2022-11-08T17:49:04.061Z,12.61
2022-11-08T17:54:05.551Z,12.58
2022-11-08T17:59:06.969Z,12.53
2022-11-08T18:04:10.291Z,12.46
2022-11-08T18:09:11.746Z,12.42
2022-11-08T18:14:15.331Z,12.42
2022-11-08T18:19:17.194Z,12.36
2022-11-08T18:24:18.594Z,12.40
2022-11-08T18:29:20.116Z,12.48
2022-11-08T18:34:21.598Z,12.58
2022-11-08T18:39:23.005Z,12.68
2022-11-08T18:44:24.382Z,12.78
2022-11-08T18:49:25.748Z,12.81
2022-11-08T18:54:27.176Z,12.82
2022-11-08T18:59:28.936Z,12.85
2022-11-08T19:04:30.305Z,12.85
2022-11-08T19:09:31.703Z,12.82
2022-11-08T19:14:35.237Z,12.85
2022-11-08T19:19:39.509Z,12.93
2022-11-08T19:24:40.955Z,13.01
2022-11-08T19:29:42.724Z,13.09
2022-11-08T19:34:46.908Z,13.17
2022-11-08T19:39:48.844Z,13.19
2022-11-08T19:44:50.338Z,13.23
2022-11-08T19:49:51.909Z,13.26
2022-11-08T19:54:54.248Z,13.25
2022-11-08T19:59:55.799Z,13.24
2022-11-08T20:04:57.263Z,13.22
2022-11-08T20:09:58.669Z,13.21
2022-11-08T20:15:00.073Z,13.24
2022-11-08T20:20:02.122Z,13.25
2022-11-08T20:25:03.606Z,13.27
2022-11-08T20:30:05.610Z,13.21
2022-11-08T20:35:08.638Z,13.09
2022-11-08T20:40:10.667Z,13.04
2022-11-08T20:45:14.948Z,13.03
2022-11-08T20:50:16.738Z,13.03
2022-11-08T20:55:18.129Z,13.02
2022-11-08T21:00:32.828Z,13.04
2022-11-08T21:05:40.937Z,13.10
2022-11-08T21:10:45.214Z,13.13
2022-11-08T21:15:47.939Z,13.14
2022-11-08T21:20:50.708Z,13.10
2022-11-08T21:25:52.323Z,13.11
2022-11-08T21:30:54.757Z,13.17
2022-11-08T21:35:56.889Z,13.22
2022-11-08T21:41:05.817Z,13.26
2022-11-08T21:46:22.238Z,13.32
2022-11-08T22:03:34.895Z,13.45
2022-11-08T22:09:48.231Z,13.53
2022-11-08T22:15:03.580Z,13.59
2022-11-08T22:20:10.260Z,13.64
2022-11-08T22:25:11.746Z,13.66
2022-11-08T22:30:16.663Z,13.68
2022-11-08T22:35:18.376Z,13.68
2022-11-08T22:40:19.781Z,13.68
2022-11-08T22:45:21.155Z,13.73
2022-11-08T22:50:22.585Z,13.75
2022-11-08T22:55:24.935Z,13.80
2022-11-08T23:00:28.330Z,13.82
2022-11-08T23:05:30.913Z,13.84
2022-11-08T23:10:32.230Z,13.86
2022-11-08T23:15:34.699Z,13.88
2022-11-08T23:20:54.567Z,13.83
2022-11-08T23:25:56.020Z,13.79
2022-11-08T23:31:20.697Z,13.79
2022-11-08T23:36:22.833Z,13.77
2022-11-08T23:41:42.857Z,13.75
2022-11-08T23:46:44.308Z,13.69
2022-11-08T23:51:45.757Z,13.64
2022-11-08T23:56:47.517Z,13.58
